sensor_id;sensor_type;location;lat;lon;timestamp;P1;durP1;ratioP1;P2;durP2;ratioP2
73593;SDS011;64760;53.404;23.498;2023-05-16T00:01:43;12.05;;;7.30;;
73593;SDS011;64760;53.404;23.498;2023-05-16T00:04:09;11.27;;;7.00;;
73593;SDS011;64760;53.404;23.498;2023-05-16T00:06:36;11.43;;;6.20;;
73593;SDS011;64760;53.404;23.498;2023-05-16T00:09:02;9.63;;;6.10;;
73593;SDS011;64760;53.404;23.498;2023-05-16T00:11:28;10.43;;;6.60;;
73593;SDS011;64760;53.404;23.498;2023-05-16T00:13:55;11.10;;;7.70;;
73593;SDS011;64760;53.404;23.498;2023-05-16T00:16:22;14.98;;;7.13;;
73593;SDS011;64760;53.404;23.498;2023-05-16T00:18:50;10.55;;;6.82;;
73593;SDS011;64760;53.404;23.498;2023-05-16T00:21:17;10.75;;;7.03;;
73593;SDS011;64760;53.404;23.498;2023-05-16T00:23:43;11.32;;;6.70;;
73593;SDS011;64760;53.404;23.498;2023-05-16T00:26:10;9.18;;;7.43;;
73593;SDS011;64760;53.404;23.498;2023-05-16T00:28:38;12.50;;;7.32;;
73593;SDS011;64760;53.404;23.498;2023-05-16T00:31:04;12.45;;;7.22;;
73593;SDS011;64760;53.404;23.498;2023-05-16T00:33:30;11.00;;;6.78;;
73593;SDS011;64760;53.404;23.498;2023-05-16T00:35:57;10.00;;;6.70;;
73593;SDS011;64760;53.404;23.498;2023-05-16T00:38:23;12.23;;;7.35;;
73593;SDS011;64760;53.404;23.498;2023-05-16T00:40:50;11.05;;;7.35;;
73593;SDS011;64760;53.404;23.498;2023-05-16T00:43:16;11.65;;;7.47;;
73593;SDS011;64760;53.404;23.498;2023-05-16T00:45:44;9.90;;;7.00;;
73593;SDS011;64760;53.404;23.498;2023-05-16T00:48:11;11.02;;;6.82;;
73593;SDS011;64760;53.404;23.498;2023-05-16T00:50:39;11.07;;;7.05;;
73593;SDS011;64760;53.404;23.498;2023-05-16T00:53:05;13.63;;;7.65;;
73593;SDS011;64760;53.404;23.498;2023-05-16T00:55:31;13.85;;;7.70;;
73593;SDS011;64760;53.404;23.498;2023-05-16T00:57:57;12.32;;;7.38;;
73593;SDS011;64760;53.404;23.498;2023-05-16T01:00:24;12.50;;;7.53;;
73593;SDS011;64760;53.404;23.498;2023-05-16T01:02:52;9.88;;;6.60;;
73593;SDS011;64760;53.404;23.498;2023-05-16T01:05:19;11.48;;;7.38;;
73593;SDS011;64760;53.404;23.498;2023-05-16T01:07:45;12.07;;;6.85;;
73593;SDS011;64760;53.404;23.498;2023-05-16T01:10:12;10.27;;;7.68;;
73593;SDS011;64760;53.404;23.498;2023-05-16T01:12:47;10.55;;;7.35;;
73593;SDS011;64760;53.404;23.498;2023-05-16T01:20:54;12.27;;;7.28;;
73593;SDS011;64760;53.404;23.498;2023-05-16T01:23:40;13.50;;;7.72;;
73593;SDS011;64760;53.404;23.498;2023-05-16T01:26:24;11.65;;;6.45;;
73593;SDS011;64760;53.404;23.498;2023-05-16T01:28:53;11.43;;;7.13;;
73593;SDS011;64760;53.404;23.498;2023-05-16T01:31:20;11.05;;;7.57;;
73593;SDS011;64760;53.404;23.498;2023-05-16T01:33:47;10.68;;;6.65;;
73593;SDS011;64760;53.404;23.498;2023-05-16T01:39:19;11.32;;;7.05;;
73593;SDS011;64760;53.404;23.498;2023-05-16T01:42:05;12.25;;;7.53;;
73593;SDS011;64760;53.404;23.498;2023-05-16T01:44:36;11.57;;;7.93;;
73593;SDS011;64760;53.404;23.498;2023-05-16T01:47:13;10.15;;;7.32;;
73593;SDS011;64760;53.404;23.498;2023-05-16T01:49:53;10.50;;;7.18;;
73593;SDS011;64760;53.404;23.498;2023-05-16T01:52:24;11.07;;;7.55;;
73593;SDS011;64760;53.404;23.498;2023-05-16T01:54:57;12.95;;;8.07;;
73593;SDS011;64760;53.404;23.498;2023-05-16T01:59:50;11.45;;;7.18;;
73593;SDS011;64760;53.404;23.498;2023-05-16T02:02:18;10.02;;;7.63;;
73593;SDS011;64760;53.404;23.498;2023-05-16T02:04:44;11.50;;;7.00;;
73593;SDS011;64760;53.404;23.498;2023-05-16T02:07:13;13.10;;;8.00;;
73593;SDS011;64760;53.404;23.498;2023-05-16T02:09:40;12.30;;;7.38;;
73593;SDS011;64760;53.404;23.498;2023-05-16T02:12:06;12.68;;;7.15;;
73593;SDS011;64760;53.404;23.498;2023-05-16T02:14:32;12.13;;;7.40;;
73593;SDS011;64760;53.404;23.498;2023-05-16T02:16:59;11.50;;;7.78;;
73593;SDS011;64760;53.404;23.498;2023-05-16T02:19:25;10.57;;;7.82;;
73593;SDS011;64760;53.404;23.498;2023-05-16T02:21:52;14.05;;;8.00;;
73593;SDS011;64760;53.404;23.498;2023-05-16T02:24:18;11.18;;;7.30;;
73593;SDS011;64760;53.404;23.498;2023-05-16T02:26:44;11.38;;;7.60;;
73593;SDS011;64760;53.404;23.498;2023-05-16T02:29:10;10.85;;;7.90;;
73593;SDS011;64760;53.404;23.498;2023-05-16T02:31:36;12.70;;;8.23;;
73593;SDS011;64760;53.404;23.498;2023-05-16T02:34:03;13.55;;;8.57;;
73593;SDS011;64760;53.404;23.498;2023-05-16T02:36:29;11.93;;;8.20;;
73593;SDS011;64760;53.404;23.498;2023-05-16T02:38:55;13.70;;;8.02;;
73593;SDS011;64760;53.404;23.498;2023-05-16T02:41:22;14.27;;;8.55;;
73593;SDS011;64760;53.404;23.498;2023-05-16T02:43:48;14.02;;;9.02;;
73593;SDS011;64760;53.404;23.498;2023-05-16T02:46:32;12.88;;;8.73;;
73593;SDS011;64760;53.404;23.498;2023-05-16T02:48:59;12.65;;;8.02;;
73593;SDS011;64760;53.404;23.498;2023-05-16T02:51:26;13.70;;;8.30;;
73593;SDS011;64760;53.404;23.498;2023-05-16T02:53:53;12.35;;;7.93;;
73593;SDS011;64760;53.404;23.498;2023-05-16T02:56:21;12.43;;;8.10;;
73593;SDS011;64760;53.404;23.498;2023-05-16T02:58:48;12.00;;;7.80;;
73593;SDS011;64760;53.404;23.498;2023-05-16T03:01:16;15.10;;;8.85;;
73593;SDS011;64760;53.404;23.498;2023-05-16T03:03:42;12.93;;;8.38;;
73593;SDS011;64760;53.404;23.498;2023-05-16T03:06:08;13.77;;;8.98;;
73593;SDS011;64760;53.404;23.498;2023-05-16T03:08:35;13.10;;;7.88;;
73593;SDS011;64760;53.404;23.498;2023-05-16T03:11:01;14.48;;;8.25;;
73593;SDS011;64760;53.404;23.498;2023-05-16T03:13:28;11.93;;;8.80;;
73593;SDS011;64760;53.404;23.498;2023-05-16T03:15:58;10.82;;;7.60;;
73593;SDS011;64760;53.404;23.498;2023-05-16T03:18:24;13.60;;;7.60;;
73593;SDS011;64760;53.404;23.498;2023-05-16T03:20:51;13.63;;;8.60;;
73593;SDS011;64760;53.404;23.498;2023-05-16T03:23:20;13.73;;;9.25;;
73593;SDS011;64760;53.404;23.498;2023-05-16T03:25:47;11.73;;;8.00;;
73593;SDS011;64760;53.404;23.498;2023-05-16T03:28:15;17.83;;;9.30;;
73593;SDS011;64760;53.404;23.498;2023-05-16T03:30:42;13.43;;;8.35;;
73593;SDS011;64760;53.404;23.498;2023-05-16T03:33:08;13.52;;;9.32;;
73593;SDS011;64760;53.404;23.498;2023-05-16T03:35:35;12.90;;;9.15;;
73593;SDS011;64760;53.404;23.498;2023-05-16T03:38:01;12.38;;;8.68;;
73593;SDS011;64760;53.404;23.498;2023-05-16T03:40:28;16.17;;;8.70;;
73593;SDS011;64760;53.404;23.498;2023-05-16T03:42:54;11.80;;;8.27;;
73593;SDS011;64760;53.404;23.498;2023-05-16T03:45:20;12.43;;;8.88;;
73593;SDS011;64760;53.404;23.498;2023-05-16T03:47:49;14.55;;;8.98;;
73593;SDS011;64760;53.404;23.498;2023-05-16T03:50:16;14.35;;;8.55;;
73593;SDS011;64760;53.404;23.498;2023-05-16T03:52:43;14.93;;;9.00;;
73593;SDS011;64760;53.404;23.498;2023-05-16T03:57:40;15.00;;;9.27;;
73593;SDS011;64760;53.404;23.498;2023-05-16T04:00:10;12.23;;;8.35;;
73593;SDS011;64760;53.404;23.498;2023-05-16T04:02:38;12.52;;;8.63;;
73593;SDS011;64760;53.404;23.498;2023-05-16T04:05:09;15.88;;;8.93;;
73593;SDS011;64760;53.404;23.498;2023-05-16T04:07:36;12.98;;;8.52;;
73593;SDS011;64760;53.404;23.498;2023-05-16T04:10:03;12.63;;;9.40;;
73593;SDS011;64760;53.404;23.498;2023-05-16T04:12:30;12.82;;;8.95;;
73593;SDS011;64760;53.404;23.498;2023-05-16T04:14:56;12.07;;;8.40;;
73593;SDS011;64760;53.404;23.498;2023-05-16T04:17:22;14.73;;;9.63;;
73593;SDS011;64760;53.404;23.498;2023-05-16T04:19:49;16.63;;;9.80;;
73593;SDS011;64760;53.404;23.498;2023-05-16T04:22:15;15.50;;;9.23;;
73593;SDS011;64760;53.404;23.498;2023-05-16T04:24:41;14.18;;;8.68;;
73593;SDS011;64760;53.404;23.498;2023-05-16T04:27:07;14.35;;;8.90;;
73593;SDS011;64760;53.404;23.498;2023-05-16T04:29:34;13.68;;;8.52;;
73593;SDS011;64760;53.404;23.498;2023-05-16T04:32:01;12.32;;;8.60;;
73593;SDS011;64760;53.404;23.498;2023-05-16T04:34:27;13.80;;;9.70;;
73593;SDS011;64760;53.404;23.498;2023-05-16T04:36:53;12.85;;;8.43;;
73593;SDS011;64760;53.404;23.498;2023-05-16T04:39:20;12.82;;;8.98;;
73593;SDS011;64760;53.404;23.498;2023-05-16T04:41:47;13.13;;;7.40;;
73593;SDS011;64760;53.404;23.498;2023-05-16T04:44:13;11.50;;;8.20;;
73593;SDS011;64760;53.404;23.498;2023-05-16T04:46:39;11.68;;;7.63;;
73593;SDS011;64760;53.404;23.498;2023-05-16T04:49:06;11.85;;;8.00;;
73593;SDS011;64760;53.404;23.498;2023-05-16T04:51:32;12.52;;;7.47;;
73593;SDS011;64760;53.404;23.498;2023-05-16T04:53:59;11.23;;;7.43;;
73593;SDS011;64760;53.404;23.498;2023-05-16T04:56:25;9.70;;;7.45;;
73593;SDS011;64760;53.404;23.498;2023-05-16T04:58:53;10.70;;;7.07;;
73593;SDS011;64760;53.404;23.498;2023-05-16T05:01:19;11.27;;;7.10;;
73593;SDS011;64760;53.404;23.498;2023-05-16T05:03:46;7.75;;;5.68;;
73593;SDS011;64760;53.404;23.498;2023-05-16T05:06:13;9.15;;;6.20;;
73593;SDS011;64760;53.404;23.498;2023-05-16T05:11:05;10.40;;;5.70;;
73593;SDS011;64760;53.404;23.498;2023-05-16T05:13:32;11.75;;;7.25;;
73593;SDS011;64760;53.404;23.498;2023-05-16T05:15:58;9.43;;;6.68;;
73593;SDS011;64760;53.404;23.498;2023-05-16T05:18:24;9.35;;;6.55;;
73593;SDS011;64760;53.404;23.498;2023-05-16T05:20:51;9.90;;;6.07;;
73593;SDS011;64760;53.404;23.498;2023-05-16T05:23:17;9.80;;;5.88;;
73593;SDS011;64760;53.404;23.498;2023-05-16T05:25:45;10.55;;;5.88;;
73593;SDS011;64760;53.404;23.498;2023-05-16T05:28:11;8.00;;;5.43;;
73593;SDS011;64760;53.404;23.498;2023-05-16T05:30:37;7.93;;;5.85;;
73593;SDS011;64760;53.404;23.498;2023-05-16T05:33:04;7.85;;;5.38;;
73593;SDS011;64760;53.404;23.498;2023-05-16T05:35:30;9.85;;;5.35;;
73593;SDS011;64760;53.404;23.498;2023-05-16T05:37:57;8.38;;;5.72;;
73593;SDS011;64760;53.404;23.498;2023-05-16T05:40:23;7.97;;;5.40;;
73593;SDS011;64760;53.404;23.498;2023-05-16T05:42:49;10.25;;;6.63;;
73593;SDS011;64760;53.404;23.498;2023-05-16T05:45:15;10.85;;;7.45;;
73593;SDS011;64760;53.404;23.498;2023-05-16T05:47:42;7.95;;;5.45;;
73593;SDS011;64760;53.404;23.498;2023-05-16T05:50:08;9.25;;;5.78;;
73593;SDS011;64760;53.404;23.498;2023-05-16T05:52:36;7.85;;;5.90;;
73593;SDS011;64760;53.404;23.498;2023-05-16T05:55:03;10.93;;;5.65;;
73593;SDS011;64760;53.404;23.498;2023-05-16T05:57:29;7.40;;;5.43;;
73593;SDS011;64760;53.404;23.498;2023-05-16T05:59:55;10.20;;;5.65;;
73593;SDS011;64760;53.404;23.498;2023-05-16T06:02:22;8.60;;;5.15;;
73593;SDS011;64760;53.404;23.498;2023-05-16T06:04:49;9.10;;;5.95;;
73593;SDS011;64760;53.404;23.498;2023-05-16T06:07:15;11.00;;;5.95;;
73593;SDS011;64760;53.404;23.498;2023-05-16T06:09:43;7.88;;;5.95;;
73593;SDS011;64760;53.404;23.498;2023-05-16T06:12:09;7.45;;;5.68;;
73593;SDS011;64760;53.404;23.498;2023-05-16T06:14:35;7.90;;;6.18;;
73593;SDS011;64760;53.404;23.498;2023-05-16T06:17:02;8.50;;;5.70;;
73593;SDS011;64760;53.404;23.498;2023-05-16T06:19:28;8.00;;;5.10;;
73593;SDS011;64760;53.404;23.498;2023-05-16T06:21:55;10.10;;;5.82;;
73593;SDS011;64760;53.404;23.498;2023-05-16T06:24:21;8.25;;;5.57;;
73593;SDS011;64760;53.404;23.498;2023-05-16T06:26:47;8.30;;;5.78;;
73593;SDS011;64760;53.404;23.498;2023-05-16T06:29:15;7.97;;;5.55;;
73593;SDS011;64760;53.404;23.498;2023-05-16T06:31:42;6.75;;;4.78;;
73593;SDS011;64760;53.404;23.498;2023-05-16T06:34:09;7.60;;;5.15;;
73593;SDS011;64760;53.404;23.498;2023-05-16T06:36:36;8.13;;;4.95;;
73593;SDS011;64760;53.404;23.498;2023-05-16T06:39:02;7.82;;;5.68;;
73593;SDS011;64760;53.404;23.498;2023-05-16T06:41:29;6.80;;;4.80;;
73593;SDS011;64760;53.404;23.498;2023-05-16T06:43:56;6.32;;;4.65;;
73593;SDS011;64760;53.404;23.498;2023-05-16T06:46:22;8.57;;;4.55;;
73593;SDS011;64760;53.404;23.498;2023-05-16T06:48:48;6.93;;;4.78;;
73593;SDS011;64760;53.404;23.498;2023-05-16T06:51:14;7.90;;;4.35;;
73593;SDS011;64760;53.404;23.498;2023-05-16T06:53:40;6.75;;;4.13;;
73593;SDS011;64760;53.404;23.498;2023-05-16T06:56:07;5.03;;;3.03;;
73593;SDS011;64760;53.404;23.498;2023-05-16T06:58:33;7.75;;;4.50;;
73593;SDS011;64760;53.404;23.498;2023-05-16T07:00:59;7.90;;;5.15;;
73593;SDS011;64760;53.404;23.498;2023-05-16T07:03:27;7.47;;;4.60;;
73593;SDS011;64760;53.404;23.498;2023-05-16T07:05:53;10.65;;;5.65;;
73593;SDS011;64760;53.404;23.498;2023-05-16T07:08:20;6.97;;;4.68;;
73593;SDS011;64760;53.404;23.498;2023-05-16T07:10:46;16.23;;;5.63;;
73593;SDS011;64760;53.404;23.498;2023-05-16T07:13:12;7.72;;;4.97;;
73593;SDS011;64760;53.404;23.498;2023-05-16T07:15:39;7.45;;;4.85;;
73593;SDS011;64760;53.404;23.498;2023-05-16T07:18:05;7.28;;;4.30;;
73593;SDS011;64760;53.404;23.498;2023-05-16T07:20:31;5.50;;;3.60;;
73593;SDS011;64760;53.404;23.498;2023-05-16T07:22:58;7.00;;;4.10;;
73593;SDS011;64760;53.404;23.498;2023-05-16T07:25:24;5.53;;;3.90;;
73593;SDS011;64760;53.404;23.498;2023-05-16T07:27:51;5.22;;;3.78;;
73593;SDS011;64760;53.404;23.498;2023-05-16T07:30:17;6.45;;;3.95;;
73593;SDS011;64760;53.404;23.498;2023-05-16T07:32:43;6.57;;;4.35;;
73593;SDS011;64760;53.404;23.498;2023-05-16T07:35:09;5.88;;;3.78;;
73593;SDS011;64760;53.404;23.498;2023-05-16T07:37:36;4.90;;;3.13;;
73593;SDS011;64760;53.404;23.498;2023-05-16T07:40:02;6.30;;;3.70;;
73593;SDS011;64760;53.404;23.498;2023-05-16T07:42:30;7.65;;;4.85;;
73593;SDS011;64760;53.404;23.498;2023-05-16T07:47:22;6.90;;;4.03;;
73593;SDS011;64760;53.404;23.498;2023-05-16T07:49:49;6.05;;;3.72;;
73593;SDS011;64760;53.404;23.498;2023-05-16T07:52:15;6.53;;;4.07;;
73593;SDS011;64760;53.404;23.498;2023-05-16T07:54:42;5.10;;;3.70;;
73593;SDS011;64760;53.404;23.498;2023-05-16T07:57:07;6.07;;;3.90;;
73593;SDS011;64760;53.404;23.498;2023-05-16T07:59:34;5.93;;;4.13;;
73593;SDS011;64760;53.404;23.498;2023-05-16T08:02:00;7.18;;;3.90;;
73593;SDS011;64760;53.404;23.498;2023-05-16T08:04:27;4.93;;;3.50;;
73593;SDS011;64760;53.404;23.498;2023-05-16T08:06:53;5.18;;;3.58;;
73593;SDS011;64760;53.404;23.498;2023-05-16T08:09:20;5.47;;;3.90;;
73593;SDS011;64760;53.404;23.498;2023-05-16T08:11:47;4.75;;;3.35;;
73593;SDS011;64760;53.404;23.498;2023-05-16T08:14:13;6.35;;;3.95;;
73593;SDS011;64760;53.404;23.498;2023-05-16T08:16:40;7.93;;;4.15;;
73593;SDS011;64760;53.404;23.498;2023-05-16T08:19:08;7.60;;;4.55;;
73593;SDS011;64760;53.404;23.498;2023-05-16T08:25:16;7.35;;;3.83;;
73593;SDS011;64760;53.404;23.498;2023-05-16T08:27:47;6.43;;;4.30;;
73593;SDS011;64760;53.404;23.498;2023-05-16T08:30:15;6.32;;;3.88;;
73593;SDS011;64760;53.404;23.498;2023-05-16T08:32:41;5.40;;;3.65;;
73593;SDS011;64760;53.404;23.498;2023-05-16T08:35:08;6.20;;;4.20;;
73593;SDS011;64760;53.404;23.498;2023-05-16T08:37:35;6.78;;;4.15;;
73593;SDS011;64760;53.404;23.498;2023-05-16T08:40:02;6.75;;;3.88;;
73593;SDS011;64760;53.404;23.498;2023-05-16T08:42:30;5.70;;;3.80;;
73593;SDS011;64760;53.404;23.498;2023-05-16T08:44:59;5.53;;;4.05;;
73593;SDS011;64760;53.404;23.498;2023-05-16T08:47:25;6.00;;;4.00;;
73593;SDS011;64760;53.404;23.498;2023-05-16T08:49:56;6.57;;;3.47;;
73593;SDS011;64760;53.404;23.498;2023-05-16T08:54:51;6.03;;;3.90;;
73593;SDS011;64760;53.404;23.498;2023-05-16T08:57:19;6.25;;;4.25;;
73593;SDS011;64760;53.404;23.498;2023-05-16T08:59:45;6.32;;;4.15;;
73593;SDS011;64760;53.404;23.498;2023-05-16T09:02:12;5.25;;;3.80;;
73593;SDS011;64760;53.404;23.498;2023-05-16T09:04:39;6.95;;;4.82;;
73593;SDS011;64760;53.404;23.498;2023-05-16T09:09:32;11.77;;;6.40;;
73593;SDS011;64760;53.404;23.498;2023-05-16T09:11:58;5.75;;;3.42;;
73593;SDS011;64760;53.404;23.498;2023-05-16T09:14:25;5.28;;;3.60;;
73593;SDS011;64760;53.404;23.498;2023-05-16T09:17:04;5.82;;;3.25;;
73593;SDS011;64760;53.404;23.498;2023-05-16T09:19:38;4.75;;;3.33;;
73593;SDS011;64760;53.404;23.498;2023-05-16T09:22:12;8.80;;;6.13;;
73593;SDS011;64760;53.404;23.498;2023-05-16T09:24:43;5.85;;;3.88;;
73593;SDS011;64760;53.404;23.498;2023-05-16T09:27:11;6.78;;;4.65;;
73593;SDS011;64760;53.404;23.498;2023-05-16T09:29:40;6.13;;;4.15;;
73593;SDS011;64760;53.404;23.498;2023-05-16T09:32:13;6.57;;;4.20;;
73593;SDS011;64760;53.404;23.498;2023-05-16T09:34:44;7.88;;;4.63;;
73593;SDS011;64760;53.404;23.498;2023-05-16T09:37:14;5.28;;;3.55;;
73593;SDS011;64760;53.404;23.498;2023-05-16T09:39:44;4.88;;;2.80;;
73593;SDS011;64760;53.404;23.498;2023-05-16T09:42:16;6.45;;;3.97;;
73593;SDS011;64760;53.404;23.498;2023-05-16T09:44:51;7.50;;;4.18;;
73593;SDS011;64760;53.404;23.498;2023-05-16T09:47:19;6.68;;;3.63;;
73593;SDS011;64760;53.404;23.498;2023-05-16T09:49:50;9.82;;;4.22;;
73593;SDS011;64760;53.404;23.498;2023-05-16T09:52:17;5.43;;;3.70;;
73593;SDS011;64760;53.404;23.498;2023-05-16T09:54:45;5.45;;;3.72;;
73593;SDS011;64760;53.404;23.498;2023-05-16T09:57:21;5.10;;;3.45;;
73593;SDS011;64760;53.404;23.498;2023-05-16T09:59:48;5.93;;;3.55;;
73593;SDS011;64760;53.404;23.498;2023-05-16T10:02:15;6.25;;;3.35;;
73593;SDS011;64760;53.404;23.498;2023-05-16T10:04:41;5.38;;;3.65;;
73593;SDS011;64760;53.404;23.498;2023-05-16T10:07:07;6.75;;;4.20;;
73593;SDS011;64760;53.404;23.498;2023-05-16T10:09:37;6.18;;;3.92;;
73593;SDS011;64760;53.404;23.498;2023-05-16T10:12:06;7.13;;;4.45;;
73593;SDS011;64760;53.404;23.498;2023-05-16T10:14:35;6.43;;;4.25;;
73593;SDS011;64760;53.404;23.498;2023-05-16T10:17:02;6.55;;;4.13;;
73593;SDS011;64760;53.404;23.498;2023-05-16T10:19:31;5.85;;;3.95;;
73593;SDS011;64760;53.404;23.498;2023-05-16T10:22:03;8.05;;;4.70;;
73593;SDS011;64760;53.404;23.498;2023-05-16T10:27:00;8.55;;;6.45;;
73593;SDS011;64760;53.404;23.498;2023-05-16T10:29:29;6.63;;;4.63;;
73593;SDS011;64760;53.404;23.498;2023-05-16T10:31:57;9.07;;;4.90;;
73593;SDS011;64760;53.404;23.498;2023-05-16T10:34:24;5.65;;;3.83;;
73593;SDS011;64760;53.404;23.498;2023-05-16T10:36:51;5.28;;;3.33;;
73593;SDS011;64760;53.404;23.498;2023-05-16T10:39:19;6.95;;;3.97;;
73593;SDS011;64760;53.404;23.498;2023-05-16T10:41:46;5.63;;;3.60;;
73593;SDS011;64760;53.404;23.498;2023-05-16T10:44:13;5.30;;;4.10;;
73593;SDS011;64760;53.404;23.498;2023-05-16T10:46:45;5.75;;;4.22;;
73593;SDS011;64760;53.404;23.498;2023-05-16T10:49:23;6.28;;;3.50;;
73593;SDS011;64760;53.404;23.498;2023-05-16T10:52:07;3.92;;;2.67;;
73593;SDS011;64760;53.404;23.498;2023-05-16T10:54:38;6.18;;;4.03;;
73593;SDS011;64760;53.404;23.498;2023-05-16T10:57:07;4.10;;;2.80;;
73593;SDS011;64760;53.404;23.498;2023-05-16T10:59:49;4.82;;;3.45;;
73593;SDS011;64760;53.404;23.498;2023-05-16T11:02:39;7.30;;;4.22;;
73593;SDS011;64760;53.404;23.498;2023-05-16T11:08:07;6.90;;;4.05;;
73593;SDS011;64760;53.404;23.498;2023-05-16T11:10:34;7.97;;;4.97;;
73593;SDS011;64760;53.404;23.498;2023-05-16T11:13:06;9.35;;;5.22;;
73593;SDS011;64760;53.404;23.498;2023-05-16T11:15:33;9.98;;;5.28;;
73593;SDS011;64760;53.404;23.498;2023-05-16T11:18:03;7.80;;;5.22;;
73593;SDS011;64760;53.404;23.498;2023-05-16T11:20:38;7.90;;;4.90;;
73593;SDS011;64760;53.404;23.498;2023-05-16T11:25:42;7.32;;;4.70;;
73593;SDS011;64760;53.404;23.498;2023-05-16T11:28:13;6.03;;;4.18;;
73593;SDS011;64760;53.404;23.498;2023-05-16T11:30:47;6.80;;;4.78;;
73593;SDS011;64760;53.404;23.498;2023-05-16T11:33:16;5.57;;;4.15;;
73593;SDS011;64760;53.404;23.498;2023-05-16T11:35:58;6.25;;;4.20;;
73593;SDS011;64760;53.404;23.498;2023-05-16T11:38:34;6.75;;;3.75;;
73593;SDS011;64760;53.404;23.498;2023-05-16T11:41:05;6.78;;;4.60;;
73593;SDS011;64760;53.404;23.498;2023-05-16T11:43:36;7.60;;;4.38;;
73593;SDS011;64760;53.404;23.498;2023-05-16T11:46:04;4.55;;;3.45;;
73593;SDS011;64760;53.404;23.498;2023-05-16T11:48:30;4.93;;;3.33;;
73593;SDS011;64760;53.404;23.498;2023-05-16T11:50:56;4.57;;;3.28;;
73593;SDS011;64760;53.404;23.498;2023-05-16T11:53:22;4.97;;;2.92;;
73593;SDS011;64760;53.404;23.498;2023-05-16T11:55:49;6.00;;;3.22;;
73593;SDS011;64760;53.404;23.498;2023-05-16T11:58:18;5.53;;;3.60;;
73593;SDS011;64760;53.404;23.498;2023-05-16T12:00:49;6.35;;;3.70;;
73593;SDS011;64760;53.404;23.498;2023-05-16T12:03:24;4.78;;;2.97;;
73593;SDS011;64760;53.404;23.498;2023-05-16T12:05:51;6.72;;;4.00;;
73593;SDS011;64760;53.404;23.498;2023-05-16T12:08:22;5.53;;;3.53;;
73593;SDS011;64760;53.404;23.498;2023-05-16T12:10:52;4.82;;;3.22;;
73593;SDS011;64760;53.404;23.498;2023-05-16T12:13:19;5.35;;;3.70;;
73593;SDS011;64760;53.404;23.498;2023-05-16T12:15:47;6.57;;;3.65;;
73593;SDS011;64760;53.404;23.498;2023-05-16T12:18:16;9.13;;;4.15;;
73593;SDS011;64760;53.404;23.498;2023-05-16T12:20:43;5.95;;;3.85;;
73593;SDS011;64760;53.404;23.498;2023-05-16T12:23:12;4.15;;;3.13;;
73593;SDS011;64760;53.404;23.498;2023-05-16T12:25:43;5.57;;;3.45;;
73593;SDS011;64760;53.404;23.498;2023-05-16T12:28:12;5.05;;;3.08;;
73593;SDS011;64760;53.404;23.498;2023-05-16T12:30:40;7.03;;;4.53;;
73593;SDS011;64760;53.404;23.498;2023-05-16T12:33:10;7.63;;;4.43;;
73593;SDS011;64760;53.404;23.498;2023-05-16T12:35:39;5.93;;;3.95;;
73593;SDS011;64760;53.404;23.498;2023-05-16T12:38:09;5.97;;;3.67;;
73593;SDS011;64760;53.404;23.498;2023-05-16T12:40:37;5.63;;;4.20;;
73593;SDS011;64760;53.404;23.498;2023-05-16T12:46:00;4.88;;;3.22;;
73593;SDS011;64760;53.404;23.498;2023-05-16T12:48:31;6.78;;;4.15;;
73593;SDS011;64760;53.404;23.498;2023-05-16T12:51:12;7.85;;;3.83;;
73593;SDS011;64760;53.404;23.498;2023-05-16T12:53:46;7.53;;;3.95;;
73593;SDS011;64760;53.404;23.498;2023-05-16T12:56:14;5.85;;;3.83;;
73593;SDS011;64760;53.404;23.498;2023-05-16T12:58:43;5.38;;;3.58;;
73593;SDS011;64760;53.404;23.498;2023-05-16T13:01:10;5.32;;;3.30;;
73593;SDS011;64760;53.404;23.498;2023-05-16T13:03:36;4.95;;;3.35;;
73593;SDS011;64760;53.404;23.498;2023-05-16T13:06:03;6.80;;;3.78;;
73593;SDS011;64760;53.404;23.498;2023-05-16T13:08:30;6.53;;;4.07;;
73593;SDS011;64760;53.404;23.498;2023-05-16T13:10:57;7.15;;;4.20;;
73593;SDS011;64760;53.404;23.498;2023-05-16T13:13:23;7.60;;;3.22;;
73593;SDS011;64760;53.404;23.498;2023-05-16T13:15:49;6.10;;;3.65;;
73593;SDS011;64760;53.404;23.498;2023-05-16T13:18:16;5.88;;;3.72;;
73593;SDS011;64760;53.404;23.498;2023-05-16T13:20:42;6.53;;;3.90;;
73593;SDS011;64760;53.404;23.498;2023-05-16T13:23:09;6.30;;;4.05;;
73593;SDS011;64760;53.404;23.498;2023-05-16T13:25:35;7.88;;;4.70;;
73593;SDS011;64760;53.404;23.498;2023-05-16T13:28:01;5.47;;;3.50;;
73593;SDS011;64760;53.404;23.498;2023-05-16T13:30:27;8.73;;;4.00;;
73593;SDS011;64760;53.404;23.498;2023-05-16T13:32:55;7.32;;;4.18;;
73593;SDS011;64760;53.404;23.498;2023-05-16T13:35:22;6.43;;;3.80;;
73593;SDS011;64760;53.404;23.498;2023-05-16T13:37:48;8.15;;;3.90;;
73593;SDS011;64760;53.404;23.498;2023-05-16T13:40:14;6.32;;;3.85;;
73593;SDS011;64760;53.404;23.498;2023-05-16T13:42:40;5.88;;;3.60;;
73593;SDS011;64760;53.404;23.498;2023-05-16T13:45:07;5.43;;;3.80;;
73593;SDS011;64760;53.404;23.498;2023-05-16T13:47:34;7.22;;;4.32;;
73593;SDS011;64760;53.404;23.498;2023-05-16T13:52:31;8.52;;;5.15;;
73593;SDS011;64760;53.404;23.498;2023-05-16T13:54:57;8.73;;;5.10;;
73593;SDS011;64760;53.404;23.498;2023-05-16T13:57:23;10.57;;;6.60;;
73593;SDS011;64760;53.404;23.498;2023-05-16T13:59:50;12.73;;;7.10;;
73593;SDS011;64760;53.404;23.498;2023-05-16T14:02:16;9.52;;;5.65;;
73593;SDS011;64760;53.404;23.498;2023-05-16T14:04:42;9.48;;;5.10;;
73593;SDS011;64760;53.404;23.498;2023-05-16T14:07:08;8.45;;;3.90;;
73593;SDS011;64760;53.404;23.498;2023-05-16T14:09:35;5.82;;;4.13;;
73593;SDS011;64760;53.404;23.498;2023-05-16T14:12:04;4.97;;;3.65;;
73593;SDS011;64760;53.404;23.498;2023-05-16T14:14:32;4.78;;;3.15;;
73593;SDS011;64760;53.404;23.498;2023-05-16T14:16:59;6.03;;;3.20;;
73593;SDS011;64760;53.404;23.498;2023-05-16T14:19:26;5.75;;;3.80;;
73593;SDS011;64760;53.404;23.498;2023-05-16T14:21:52;4.80;;;3.30;;
73593;SDS011;64760;53.404;23.498;2023-05-16T14:24:19;4.82;;;3.80;;
73593;SDS011;64760;53.404;23.498;2023-05-16T14:26:45;4.93;;;3.30;;
73593;SDS011;64760;53.404;23.498;2023-05-16T14:29:11;4.55;;;3.17;;
73593;SDS011;64760;53.404;23.498;2023-05-16T14:31:38;4.30;;;2.70;;
73593;SDS011;64760;53.404;23.498;2023-05-16T14:34:05;3.90;;;2.58;;
73593;SDS011;64760;53.404;23.498;2023-05-16T14:36:31;5.40;;;3.10;;
73593;SDS011;64760;53.404;23.498;2023-05-16T14:38:57;5.45;;;2.83;;
73593;SDS011;64760;53.404;23.498;2023-05-16T14:41:24;6.47;;;4.47;;
73593;SDS011;64760;53.404;23.498;2023-05-16T14:46:17;5.32;;;2.58;;
73593;SDS011;64760;53.404;23.498;2023-05-16T14:48:43;5.65;;;4.03;;
73593;SDS011;64760;53.404;23.498;2023-05-16T14:51:09;3.63;;;2.20;;
73593;SDS011;64760;53.404;23.498;2023-05-16T14:53:37;3.90;;;2.33;;
73593;SDS011;64760;53.404;23.498;2023-05-16T14:56:03;10.20;;;8.25;;
73593;SDS011;64760;53.404;23.498;2023-05-16T14:58:30;5.05;;;2.95;;
73593;SDS011;64760;53.404;23.498;2023-05-16T15:00:56;5.38;;;2.63;;
73593;SDS011;64760;53.404;23.498;2023-05-16T15:03:23;4.57;;;2.72;;
73593;SDS011;64760;53.404;23.498;2023-05-16T15:05:49;5.13;;;2.80;;
73593;SDS011;64760;53.404;23.498;2023-05-16T15:08:16;4.20;;;2.35;;
73593;SDS011;64760;53.404;23.498;2023-05-16T15:10:42;4.50;;;2.42;;
73593;SDS011;64760;53.404;23.498;2023-05-16T15:13:09;9.63;;;5.95;;
73593;SDS011;64760;53.404;23.498;2023-05-16T15:15:36;8.15;;;5.07;;
73593;SDS011;64760;53.404;23.498;2023-05-16T15:18:03;7.05;;;4.45;;